sensor_id;sensor_type;location;lat;lon;timestamp;P1;durP1;ratioP1;P2;durP2;ratioP2
3991;SDS011;2010;48.194;16.394;2023-08-06T00:00:37;0.40;;;0.40;;
3991;SDS011;2010;48.194;16.394;2023-08-06T00:03:08;5.33;;;0.47;;
3991;SDS011;2010;48.194;16.394;2023-08-06T00:05:41;0.50;;;0.50;;
3991;SDS011;2010;48.194;16.394;2023-08-06T00:08:18;0.30;;;0.30;;
3991;SDS011;2010;48.194;16.394;2023-08-06T00:10:51;2.20;;;1.03;;
3991;SDS011;2010;48.194;16.394;2023-08-06T00:13:23;0.40;;;0.40;;
3991;SDS011;2010;48.194;16.394;2023-08-06T00:15:54;0.40;;;0.33;;
3991;SDS011;2010;48.194;16.394;2023-08-06T00:18:25;0.40;;;0.30;;
3991;SDS011;2010;48.194;16.394;2023-08-06T00:20:54;0.40;;;0.40;;
3991;SDS011;2010;48.194;16.394;2023-08-06T00:23:26;1.17;;;0.40;;
3991;SDS011;2010;48.194;16.394;2023-08-06T00:26:04;0.50;;;0.50;;
3991;SDS011;2010;48.194;16.394;2023-08-06T00:28:36;0.80;;;0.43;;
3991;SDS011;2010;48.194;16.394;2023-08-06T00:31:05;0.40;;;0.40;;
3991;SDS011;2010;48.194;16.394;2023-08-06T00:33:34;0.50;;;0.50;;
3991;SDS011;2010;48.194;16.394;2023-08-06T00:36:05;0.60;;;0.40;;
3991;SDS011;2010;48.194;16.394;2023-08-06T00:38:34;0.40;;;0.30;;
3991;SDS011;2010;48.194;16.394;2023-08-06T00:41:28;0.30;;;0.30;;
3991;SDS011;2010;48.194;16.394;2023-08-06T00:43:59;0.40;;;0.40;;
3991;SDS011;2010;48.194;16.394;2023-08-06T00:46:28;0.87;;;0.50;;
3991;SDS011;2010;48.194;16.394;2023-08-06T00:48:57;0.43;;;0.43;;
3991;SDS011;2010;48.194;16.394;2023-08-06T00:51:27;0.50;;;0.50;;
3991;SDS011;2010;48.194;16.394;2023-08-06T00:53:55;0.40;;;0.40;;
3991;SDS011;2010;48.194;16.394;2023-08-06T00:56:33;0.40;;;0.40;;
3991;SDS011;2010;48.194;16.394;2023-08-06T00:59:09;0.77;;;0.57;;
3991;SDS011;2010;48.194;16.394;2023-08-06T01:01:46;0.50;;;0.50;;
3991;SDS011;2010;48.194;16.394;2023-08-06T01:04:27;2.83;;;0.60;;
3991;SDS011;2010;48.194;16.394;2023-08-06T01:07:06;0.43;;;0.43;;
3991;SDS011;2010;48.194;16.394;2023-08-06T01:09:45;0.73;;;0.40;;
3991;SDS011;2010;48.194;16.394;2023-08-06T01:12:29;0.40;;;0.40;;
3991;SDS011;2010;48.194;16.394;2023-08-06T01:15:07;0.60;;;0.30;;
3991;SDS011;2010;48.194;16.394;2023-08-06T01:17:40;0.60;;;0.60;;
3991;SDS011;2010;48.194;16.394;2023-08-06T01:20:11;0.40;;;0.40;;
3991;SDS011;2010;48.194;16.394;2023-08-06T01:22:45;0.50;;;0.50;;
3991;SDS011;2010;48.194;16.394;2023-08-06T01:25:15;0.70;;;0.50;;
3991;SDS011;2010;48.194;16.394;2023-08-06T01:27:49;0.40;;;0.40;;
3991;SDS011;2010;48.194;16.394;2023-08-06T01:30:20;0.90;;;0.37;;
3991;SDS011;2010;48.194;16.394;2023-08-06T01:32:53;0.50;;;0.50;;
3991;SDS011;2010;48.194;16.394;2023-08-06T01:35:30;0.40;;;0.30;;
3991;SDS011;2010;48.194;16.394;2023-08-06T01:38:23;0.53;;;0.30;;
3991;SDS011;2010;48.194;16.394;2023-08-06T01:40:55;6.10;;;0.40;;
3991;SDS011;2010;48.194;16.394;2023-08-06T01:43:29;0.40;;;0.30;;
3991;SDS011;2010;48.194;16.394;2023-08-06T01:46:00;0.40;;;0.40;;
3991;SDS011;2010;48.194;16.394;2023-08-06T01:48:36;2.13;;;0.50;;
3991;SDS011;2010;48.194;16.394;2023-08-06T01:51:11;0.60;;;0.60;;
3991;SDS011;2010;48.194;16.394;2023-08-06T01:53:43;0.43;;;0.43;;
3991;SDS011;2010;48.194;16.394;2023-08-06T01:56:20;0.70;;;0.50;;
3991;SDS011;2010;48.194;16.394;2023-08-06T01:58:52;0.50;;;0.40;;
3991;SDS011;2010;48.194;16.394;2023-08-06T02:01:23;0.50;;;0.50;;
3991;SDS011;2010;48.194;16.394;2023-08-06T02:03:53;1.17;;;0.60;;
3991;SDS011;2010;48.194;16.394;2023-08-06T02:06:26;0.57;;;0.57;;
3991;SDS011;2010;48.194;16.394;2023-08-06T02:09:13;0.80;;;0.80;;
3991;SDS011;2010;48.194;16.394;2023-08-06T02:11:46;0.70;;;0.70;;
3991;SDS011;2010;48.194;16.394;2023-08-06T02:14:18;0.80;;;0.80;;
3991;SDS011;2010;48.194;16.394;2023-08-06T02:16:51;0.60;;;0.60;;
3991;SDS011;2010;48.194;16.394;2023-08-06T02:19:24;0.60;;;0.60;;
3991;SDS011;2010;48.194;16.394;2023-08-06T02:21:53;0.50;;;0.50;;
3991;SDS011;2010;48.194;16.394;2023-08-06T02:24:29;0.60;;;0.60;;
3991;SDS011;2010;48.194;16.394;2023-08-06T02:27:00;0.60;;;0.60;;
3991;SDS011;2010;48.194;16.394;2023-08-06T02:29:30;1.57;;;0.90;;
3991;SDS011;2010;48.194;16.394;2023-08-06T02:32:01;0.63;;;0.63;;
3991;SDS011;2010;48.194;16.394;2023-08-06T02:34:34;0.80;;;0.70;;
3991;SDS011;2010;48.194;16.394;2023-08-06T02:37:04;0.83;;;0.83;;
3991;SDS011;2010;48.194;16.394;2023-08-06T02:39:38;0.77;;;0.77;;
3991;SDS011;2010;48.194;16.394;2023-08-06T02:42:07;0.70;;;0.70;;
3991;SDS011;2010;48.194;16.394;2023-08-06T02:44:42;0.70;;;0.70;;
3991;SDS011;2010;48.194;16.394;2023-08-06T02:47:12;1.10;;;0.80;;
3991;SDS011;2010;48.194;16.394;2023-08-06T02:49:43;1.13;;;0.60;;
3991;SDS011;2010;48.194;16.394;2023-08-06T02:52:32;0.80;;;0.80;;
3991;SDS011;2010;48.194;16.394;2023-08-06T02:55:07;0.80;;;0.80;;
3991;SDS011;2010;48.194;16.394;2023-08-06T02:57:44;1.23;;;0.80;;
3991;SDS011;2010;48.194;16.394;2023-08-06T03:00:13;0.83;;;0.83;;
3991;SDS011;2010;48.194;16.394;2023-08-06T03:02:44;1.07;;;1.07;;
3991;SDS011;2010;48.194;16.394;2023-08-06T03:05:29;1.03;;;1.00;;
3991;SDS011;2010;48.194;16.394;2023-08-06T03:07:59;0.80;;;0.80;;
3991;SDS011;2010;48.194;16.394;2023-08-06T03:10:40;2.20;;;1.03;;
3991;SDS011;2010;48.194;16.394;2023-08-06T03:13:09;0.90;;;0.87;;
3991;SDS011;2010;48.194;16.394;2023-08-06T03:15:40;0.90;;;0.90;;
3991;SDS011;2010;48.194;16.394;2023-08-06T03:18:11;1.03;;;0.80;;
3991;SDS011;2010;48.194;16.394;2023-08-06T03:20:44;1.10;;;1.00;;
3991;SDS011;2010;48.194;16.394;2023-08-06T03:23:15;0.90;;;0.90;;
3991;SDS011;2010;48.194;16.394;2023-08-06T03:25:55;1.10;;;1.10;;
3991;SDS011;2010;48.194;16.394;2023-08-06T03:28:26;1.03;;;1.03;;
3991;SDS011;2010;48.194;16.394;2023-08-06T03:30:59;1.47;;;1.30;;
3991;SDS011;2010;48.194;16.394;2023-08-06T03:33:41;1.43;;;1.33;;
3991;SDS011;2010;48.194;16.394;2023-08-06T03:36:16;1.27;;;1.20;;
3991;SDS011;2010;48.194;16.394;2023-08-06T03:38:46;1.27;;;1.20;;
3991;SDS011;2010;48.194;16.394;2023-08-06T03:41:19;1.00;;;1.00;;
3991;SDS011;2010;48.194;16.394;2023-08-06T03:43:53;1.23;;;1.20;;
3991;SDS011;2010;48.194;16.394;2023-08-06T03:46:26;1.30;;;1.20;;
3991;SDS011;2010;48.194;16.394;2023-08-06T03:49:05;1.00;;;1.00;;
3991;SDS011;2010;48.194;16.394;2023-08-06T03:51:41;1.70;;;1.60;;
3991;SDS011;2010;48.194;16.394;2023-08-06T03:54:19;1.40;;;1.30;;
3991;SDS011;2010;48.194;16.394;2023-08-06T03:56:54;1.73;;;1.50;;
3991;SDS011;2010;48.194;16.394;2023-08-06T03:59:26;1.53;;;1.53;;
3991;SDS011;2010;48.194;16.394;2023-08-06T04:02:02;1.97;;;1.87;;
3991;SDS011;2010;48.194;16.394;2023-08-06T04:04:32;3.37;;;2.00;;
3991;SDS011;2010;48.194;16.394;2023-08-06T04:07:01;1.57;;;1.50;;
3991;SDS011;2010;48.194;16.394;2023-08-06T04:09:30;1.70;;;1.60;;
3991;SDS011;2010;48.194;16.394;2023-08-06T04:12:05;1.93;;;1.83;;
3991;SDS011;2010;48.194;16.394;2023-08-06T04:14:37;2.00;;;1.90;;
3991;SDS011;2010;48.194;16.394;2023-08-06T04:17:05;1.57;;;1.47;;
3991;SDS011;2010;48.194;16.394;2023-08-06T04:19:34;1.77;;;1.60;;
3991;SDS011;2010;48.194;16.394;2023-08-06T04:22:09;1.57;;;1.57;;
3991;SDS011;2010;48.194;16.394;2023-08-06T04:24:46;2.20;;;1.80;;
3991;SDS011;2010;48.194;16.394;2023-08-06T04:27:23;1.50;;;1.50;;
3991;SDS011;2010;48.194;16.394;2023-08-06T04:29:56;1.80;;;1.70;;
3991;SDS011;2010;48.194;16.394;2023-08-06T04:32:30;1.93;;;1.83;;
3991;SDS011;2010;48.194;16.394;2023-08-06T04:35:01;1.90;;;1.80;;
3991;SDS011;2010;48.194;16.394;2023-08-06T04:37:32;2.20;;;2.10;;
3991;SDS011;2010;48.194;16.394;2023-08-06T04:40:03;1.83;;;1.73;;
3991;SDS011;2010;48.194;16.394;2023-08-06T04:42:36;1.90;;;1.80;;
3991;SDS011;2010;48.194;16.394;2023-08-06T04:45:06;1.70;;;1.60;;
3991;SDS011;2010;48.194;16.394;2023-08-06T04:47:37;1.50;;;1.40;;
3991;SDS011;2010;48.194;16.394;2023-08-06T04:50:06;3.70;;;1.80;;
3991;SDS011;2010;48.194;16.394;2023-08-06T04:52:39;2.20;;;1.77;;
3991;SDS011;2010;48.194;16.394;2023-08-06T04:55:09;1.67;;;1.57;;
3991;SDS011;2010;48.194;16.394;2023-08-06T04:57:40;2.30;;;2.20;;
3991;SDS011;2010;48.194;16.394;2023-08-06T05:00:12;1.87;;;1.77;;
3991;SDS011;2010;48.194;16.394;2023-08-06T05:02:44;1.97;;;1.87;;
3991;SDS011;2010;48.194;16.394;2023-08-06T05:05:13;2.00;;;1.80;;
3991;SDS011;2010;48.194;16.394;2023-08-06T05:07:59;1.90;;;1.80;;
3991;SDS011;2010;48.194;16.394;2023-08-06T05:10:30;1.90;;;1.80;;
3991;SDS011;2010;48.194;16.394;2023-08-06T05:13:05;1.60;;;1.60;;
3991;SDS011;2010;48.194;16.394;2023-08-06T05:15:35;2.00;;;1.90;;
3991;SDS011;2010;48.194;16.394;2023-08-06T05:18:14;1.90;;;1.80;;
3991;SDS011;2010;48.194;16.394;2023-08-06T05:20:43;1.97;;;1.87;;
3991;SDS011;2010;48.194;16.394;2023-08-06T05:23:11;1.80;;;1.70;;
3991;SDS011;2010;48.194;16.394;2023-08-06T05:25:50;1.77;;;1.67;;
3991;SDS011;2010;48.194;16.394;2023-08-06T05:28:25;1.83;;;1.77;;
3991;SDS011;2010;48.194;16.394;2023-08-06T05:30:53;1.93;;;1.43;;
3991;SDS011;2010;48.194;16.394;2023-08-06T05:33:22;2.03;;;1.93;;
3991;SDS011;2010;48.194;16.394;2023-08-06T05:35:52;2.60;;;1.70;;
3991;SDS011;2010;48.194;16.394;2023-08-06T05:38:29;1.73;;;1.63;;
3991;SDS011;2010;48.194;16.394;2023-08-06T05:41:01;1.43;;;1.43;;
3991;SDS011;2010;48.194;16.394;2023-08-06T05:43:44;2.03;;;1.83;;
3991;SDS011;2010;48.194;16.394;2023-08-06T05:46:18;2.30;;;2.20;;
3991;SDS011;2010;48.194;16.394;2023-08-06T05:48:53;2.10;;;2.00;;
3991;SDS011;2010;48.194;16.394;2023-08-06T05:51:22;1.70;;;1.70;;
3991;SDS011;2010;48.194;16.394;2023-08-06T05:54:01;1.80;;;1.70;;
3991;SDS011;2010;48.194;16.394;2023-08-06T05:56:43;1.90;;;1.80;;
3991;SDS011;2010;48.194;16.394;2023-08-06T05:59:24;1.73;;;1.73;;
3991;SDS011;2010;48.194;16.394;2023-08-06T06:01:58;1.70;;;1.70;;
3991;SDS011;2010;48.194;16.394;2023-08-06T06:04:28;2.07;;;1.70;;
3991;SDS011;2010;48.194;16.394;2023-08-06T06:06:56;1.80;;;1.70;;
3991;SDS011;2010;48.194;16.394;2023-08-06T06:09:25;1.80;;;1.70;;
3991;SDS011;2010;48.194;16.394;2023-08-06T06:11:55;1.90;;;1.80;;
3991;SDS011;2010;48.194;16.394;2023-08-06T06:14:40;1.90;;;1.80;;
3991;SDS011;2010;48.194;16.394;2023-08-06T06:17:11;1.70;;;1.60;;
3991;SDS011;2010;48.194;16.394;2023-08-06T06:19:48;2.10;;;1.50;;
3991;SDS011;2010;48.194;16.394;2023-08-06T06:22:19;1.60;;;1.60;;
3991;SDS011;2010;48.194;16.394;2023-08-06T06:24:49;2.00;;;1.90;;
3991;SDS011;2010;48.194;16.394;2023-08-06T06:27:28;1.80;;;1.73;;
3991;SDS011;2010;48.194;16.394;2023-08-06T06:30:13;3.90;;;1.80;;
3991;SDS011;2010;48.194;16.394;2023-08-06T06:32:46;1.60;;;1.50;;
3991;SDS011;2010;48.194;16.394;2023-08-06T06:35:20;1.40;;;1.40;;
3991;SDS011;2010;48.194;16.394;2023-08-06T06:37:53;1.60;;;1.60;;
3991;SDS011;2010;48.194;16.394;2023-08-06T06:40:23;1.90;;;1.80;;
3991;SDS011;2010;48.194;16.394;2023-08-06T06:42:58;1.83;;;1.73;;
3991;SDS011;2010;48.194;16.394;2023-08-06T06:45:38;1.70;;;1.60;;
3991;SDS011;2010;48.194;16.394;2023-08-06T06:48:09;1.67;;;1.57;;
3991;SDS011;2010;48.194;16.394;2023-08-06T06:50:41;2.20;;;2.10;;
3991;SDS011;2010;48.194;16.394;2023-08-06T06:53:09;1.43;;;1.43;;
3991;SDS011;2010;48.194;16.394;2023-08-06T06:55:41;2.30;;;2.10;;
3991;SDS011;2010;48.194;16.394;2023-08-06T06:58:19;2.50;;;1.70;;
3991;SDS011;2010;48.194;16.394;2023-08-06T07:01:00;1.50;;;1.43;;
3991;SDS011;2010;48.194;16.394;2023-08-06T07:03:32;2.20;;;2.00;;
3991;SDS011;2010;48.194;16.394;2023-08-06T07:06:10;2.03;;;1.83;;
3991;SDS011;2010;48.194;16.394;2023-08-06T07:08:42;1.60;;;1.60;;
3991;SDS011;2010;48.194;16.394;2023-08-06T07:11:12;2.00;;;1.90;;
3991;SDS011;2010;48.194;16.394;2023-08-06T07:13:42;2.60;;;1.83;;
3991;SDS011;2010;48.194;16.394;2023-08-06T07:16:20;1.13;;;1.13;;
3991;SDS011;2010;48.194;16.394;2023-08-06T07:18:52;1.50;;;1.50;;
3991;SDS011;2010;48.194;16.394;2023-08-06T07:21:23;1.60;;;1.50;;
3991;SDS011;2010;48.194;16.394;2023-08-06T07:23:51;1.57;;;1.57;;
3991;SDS011;2010;48.194;16.394;2023-08-06T07:26:27;1.30;;;1.30;;
3991;SDS011;2010;48.194;16.394;2023-08-06T07:28:58;1.53;;;1.43;;
3991;SDS011;2010;48.194;16.394;2023-08-06T07:31:33;1.37;;;1.37;;
3991;SDS011;2010;48.194;16.394;2023-08-06T07:34:05;1.53;;;1.43;;
3991;SDS011;2010;48.194;16.394;2023-08-06T07:36:38;1.40;;;1.30;;
3991;SDS011;2010;48.194;16.394;2023-08-06T07:39:10;1.97;;;1.50;;
3991;SDS011;2010;48.194;16.394;2023-08-06T07:41:46;1.70;;;1.60;;
3991;SDS011;2010;48.194;16.394;2023-08-06T07:44:15;2.10;;;2.00;;
3991;SDS011;2010;48.194;16.394;2023-08-06T07:46:53;2.07;;;1.97;;
3991;SDS011;2010;48.194;16.394;2023-08-06T07:49:21;2.40;;;2.30;;
3991;SDS011;2010;48.194;16.394;2023-08-06T07:51:59;2.50;;;2.30;;
3991;SDS011;2010;48.194;16.394;2023-08-06T07:54:30;2.20;;;2.10;;
3991;SDS011;2010;48.194;16.394;2023-08-06T07:57:06;2.03;;;1.93;;
3991;SDS011;2010;48.194;16.394;2023-08-06T07:59:35;1.83;;;1.73;;
3991;SDS011;2010;48.194;16.394;2023-08-06T08:02:10;1.90;;;1.80;;
3991;SDS011;2010;48.194;16.394;2023-08-06T08:04:40;2.10;;;2.00;;
3991;SDS011;2010;48.194;16.394;2023-08-06T08:07:19;2.30;;;2.10;;
3991;SDS011;2010;48.194;16.394;2023-08-06T08:09:50;2.13;;;2.03;;
3991;SDS011;2010;48.194;16.394;2023-08-06T08:12:22;2.27;;;2.17;;
3991;SDS011;2010;48.194;16.394;2023-08-06T08:14:50;1.77;;;1.67;;
3991;SDS011;2010;48.194;16.394;2023-08-06T08:17:23;4.30;;;1.80;;
3991;SDS011;2010;48.194;16.394;2023-08-06T08:19:53;2.00;;;1.90;;
3991;SDS011;2010;48.194;16.394;2023-08-06T08:22:27;2.00;;;1.87;;
3991;SDS011;2010;48.194;16.394;2023-08-06T08:24:57;2.10;;;2.00;;
3991;SDS011;2010;48.194;16.394;2023-08-06T08:27:28;1.90;;;1.80;;
3991;SDS011;2010;48.194;16.394;2023-08-06T08:30:06;2.20;;;1.97;;
3991;SDS011;2010;48.194;16.394;2023-08-06T08:32:44;2.13;;;2.03;;
3991;SDS011;2010;48.194;16.394;2023-08-06T08:35:12;2.03;;;1.90;;
3991;SDS011;2010;48.194;16.394;2023-08-06T08:37:43;1.93;;;1.90;;
3991;SDS011;2010;48.194;16.394;2023-08-06T08:40:13;2.10;;;2.00;;
3991;SDS011;2010;48.194;16.394;2023-08-06T08:42:43;2.17;;;2.07;;
3991;SDS011;2010;48.194;16.394;2023-08-06T08:45:15;2.20;;;2.10;;
3991;SDS011;2010;48.194;16.394;2023-08-06T08:47:49;2.13;;;2.03;;
3991;SDS011;2010;48.194;16.394;2023-08-06T08:50:21;2.00;;;1.90;;
3991;SDS011;2010;48.194;16.394;2023-08-06T08:52:50;2.13;;;2.03;;
3991;SDS011;2010;48.194;16.394;2023-08-06T08:55:18;2.10;;;1.90;;
3991;SDS011;2010;48.194;16.394;2023-08-06T08:57:49;2.13;;;2.03;;
3991;SDS011;2010;48.194;16.394;2023-08-06T09:00:19;2.40;;;2.30;;
3991;SDS011;2010;48.194;16.394;2023-08-06T09:02:54;1.90;;;1.70;;
3991;SDS011;2010;48.194;16.394;2023-08-06T09:05:28;2.80;;;2.60;;
3991;SDS011;2010;48.194;16.394;2023-08-06T09:07:59;4.07;;;2.13;;
3991;SDS011;2010;48.194;16.394;2023-08-06T09:10:31;3.47;;;1.93;;
3991;SDS011;2010;48.194;16.394;2023-08-06T09:13:04;2.40;;;2.30;;
3991;SDS011;2010;48.194;16.394;2023-08-06T09:15:36;1.93;;;1.83;;
3991;SDS011;2010;48.194;16.394;2023-08-06T09:18:29;2.67;;;2.53;;
3991;SDS011;2010;48.194;16.394;2023-08-06T09:20:58;2.40;;;2.30;;
3991;SDS011;2010;48.194;16.394;2023-08-06T09:23:35;3.00;;;2.80;;
3991;SDS011;2010;48.194;16.394;2023-08-06T09:26:06;3.93;;;2.93;;
3991;SDS011;2010;48.194;16.394;2023-08-06T09:28:44;2.87;;;2.77;;
3991;SDS011;2010;48.194;16.394;2023-08-06T09:31:15;3.30;;;3.10;;
3991;SDS011;2010;48.194;16.394;2023-08-06T09:33:47;3.33;;;3.13;;
3991;SDS011;2010;48.194;16.394;2023-08-06T09:36:23;3.13;;;2.93;;
3991;SDS011;2010;48.194;16.394;2023-08-06T09:38:52;2.60;;;2.50;;
3991;SDS011;2010;48.194;16.394;2023-08-06T09:41:26;2.87;;;2.67;;
3991;SDS011;2010;48.194;16.394;2023-08-06T09:44:05;2.50;;;2.40;;
3991;SDS011;2010;48.194;16.394;2023-08-06T09:46:35;5.57;;;2.40;;
3991;SDS011;2010;48.194;16.394;2023-08-06T09:49:08;2.77;;;2.57;;
3991;SDS011;2010;48.194;16.394;2023-08-06T09:51:37;3.00;;;2.90;;
3991;SDS011;2010;48.194;16.394;2023-08-06T09:54:24;3.07;;;2.87;;
3991;SDS011;2010;48.194;16.394;2023-08-06T09:56:54;2.60;;;2.40;;
3991;SDS011;2010;48.194;16.394;2023-08-06T09:59:24;3.00;;;2.83;;
3991;SDS011;2010;48.194;16.394;2023-08-06T10:01:58;2.90;;;2.80;;
3991;SDS011;2010;48.194;16.394;2023-08-06T10:04:33;2.37;;;2.27;;
3991;SDS011;2010;48.194;16.394;2023-08-06T10:07:09;2.93;;;2.70;;
3991;SDS011;2010;48.194;16.394;2023-08-06T10:09:40;2.27;;;2.07;;
3991;SDS011;2010;48.194;16.394;2023-08-06T10:12:14;2.63;;;2.43;;
3991;SDS011;2010;48.194;16.394;2023-08-06T10:14:48;2.00;;;1.90;;
3991;SDS011;2010;48.194;16.394;2023-08-06T10:17:21;2.20;;;1.83;;
3991;SDS011;2010;48.194;16.394;2023-08-06T10:20:02;2.37;;;2.10;;
3991;SDS011;2010;48.194;16.394;2023-08-06T10:22:42;2.23;;;2.10;;
3991;SDS011;2010;48.194;16.394;2023-08-06T10:25:16;2.57;;;2.47;;
3991;SDS011;2010;48.194;16.394;2023-08-06T10:27:53;2.50;;;2.40;;
3991;SDS011;2010;48.194;16.394;2023-08-06T10:30:27;2.70;;;2.53;;
3991;SDS011;2010;48.194;16.394;2023-08-06T10:32:58;2.60;;;2.40;;
3991;SDS011;2010;48.194;16.394;2023-08-06T10:35:42;2.50;;;2.30;;
3991;SDS011;2010;48.194;16.394;2023-08-06T10:38:17;2.10;;;2.00;;
3991;SDS011;2010;48.194;16.394;2023-08-06T10:41:01;2.60;;;2.47;;
3991;SDS011;2010;48.194;16.394;2023-08-06T10:43:31;2.10;;;2.00;;
3991;SDS011;2010;48.194;16.394;2023-08-06T10:46:20;2.73;;;2.50;;
3991;SDS011;2010;48.194;16.394;2023-08-06T10:48:51;6.00;;;2.97;;
3991;SDS011;2010;48.194;16.394;2023-08-06T10:51:27;3.03;;;2.80;;
3991;SDS011;2010;48.194;16.394;2023-08-06T10:53:57;3.80;;;3.30;;
3991;SDS011;2010;48.194;16.394;2023-08-06T10:56:40;3.23;;;2.93;;
3991;SDS011;2010;48.194;16.394;2023-08-06T10:59:14;3.20;;;3.00;;
3991;SDS011;2010;48.194;16.394;2023-08-06T11:01:48;2.80;;;2.60;;
3991;SDS011;2010;48.194;16.394;2023-08-06T11:04:18;3.13;;;2.87;;
3991;SDS011;2010;48.194;16.394;2023-08-06T11:07:02;2.73;;;2.60;;
3991;SDS011;2010;48.194;16.394;2023-08-06T11:09:32;2.90;;;2.80;;
3991;SDS011;2010;48.194;16.394;2023-08-06T11:12:08;3.80;;;3.50;;
3991;SDS011;2010;48.194;16.394;2023-08-06T11:14:41;3.83;;;3.53;;
3991;SDS011;2010;48.194;16.394;2023-08-06T11:17:10;2.60;;;2.50;;
3991;SDS011;2010;48.194;16.394;2023-08-06T11:19:42;2.53;;;2.33;;
3991;SDS011;2010;48.194;16.394;2023-08-06T11:22:20;3.37;;;3.07;;
3991;SDS011;2010;48.194;16.394;2023-08-06T11:24:58;4.33;;;2.40;;
3991;SDS011;2010;48.194;16.394;2023-08-06T11:27:28;3.50;;;3.20;;
3991;SDS011;2010;48.194;16.394;2023-08-06T11:30:00;3.20;;;3.00;;
3991;SDS011;2010;48.194;16.394;2023-08-06T11:32:29;3.13;;;2.93;;
3991;SDS011;2010;48.194;16.394;2023-08-06T11:35:09;3.13;;;2.93;;
3991;SDS011;2010;48.194;16.394;2023-08-06T11:37:47;3.53;;;2.73;;
3991;SDS011;2010;48.194;16.394;2023-08-06T11:40:19;3.23;;;3.03;;
3991;SDS011;2010;48.194;16.394;2023-08-06T11:42:48;3.73;;;3.43;;
3991;SDS011;2010;48.194;16.394;2023-08-06T11:45:21;4.17;;;3.17;;
3991;SDS011;2010;48.194;16.394;2023-08-06T11:47:58;2.80;;;2.60;;
3991;SDS011;2010;48.194;16.394;2023-08-06T11:50:36;3.00;;;2.80;;
3991;SDS011;2010;48.194;16.394;2023-08-06T11:53:11;3.80;;;3.50;;
3991;SDS011;2010;48.194;16.394;2023-08-06T11:55:55;2.97;;;2.73;;
3991;SDS011;2010;48.194;16.394;2023-08-06T11:58:24;2.50;;;2.40;;
3991;SDS011;2010;48.194;16.394;2023-08-06T12:00:56;2.60;;;2.40;;
3991;SDS011;2010;48.194;16.394;2023-08-06T12:03:25;3.93;;;3.10;;
3991;SDS011;2010;48.194;16.394;2023-08-06T12:05:56;3.33;;;3.10;;
3991;SDS011;2010;48.194;16.394;2023-08-06T12:08:30;5.47;;;3.13;;
3991;SDS011;2010;48.194;16.394;2023-08-06T12:10:58;4.37;;;3.23;;
3991;SDS011;2010;48.194;16.394;2023-08-06T12:13:28;3.50;;;3.20;;
3991;SDS011;2010;48.194;16.394;2023-08-06T12:16:00;4.27;;;2.90;;
3991;SDS011;2010;48.194;16.394;2023-08-06T12:18:29;3.47;;;3.17;;
3991;SDS011;2010;48.194;16.394;2023-08-06T12:20:58;3.60;;;3.30;;
3991;SDS011;2010;48.194;16.394;2023-08-06T12:23:32;4.87;;;2.83;;
3991;SDS011;2010;48.194;16.394;2023-08-06T12:26:06;3.30;;;3.10;;
3991;SDS011;2010;48.194;16.394;2023-08-06T12:28:35;3.40;;;2.83;;
3991;SDS011;2010;48.194;16.394;2023-08-06T12:31:09;3.47;;;3.00;;
3991;SDS011;2010;48.194;16.394;2023-08-06T12:33:43;3.60;;;2.90;;
3991;SDS011;2010;48.194;16.394;2023-08-06T12:36:17;3.10;;;2.77;;
3991;SDS011;2010;48.194;16.394;2023-08-06T12:38:51;4.07;;;2.60;;
3991;SDS011;2010;48.194;16.394;2023-08-06T12:41:25;3.20;;;3.00;;
3991;SDS011;2010;48.194;16.394;2023-08-06T12:43:57;3.40;;;3.10;;
3991;SDS011;2010;48.194;16.394;2023-08-06T12:46:25;2.90;;;2.70;;
3991;SDS011;2010;48.194;16.394;2023-08-06T12:49:00;3.33;;;2.90;;
3991;SDS011;2010;48.194;16.394;2023-08-06T12:51:38;3.50;;;3.13;;
3991;SDS011;2010;48.194;16.394;2023-08-06T12:54:31;3.03;;;2.83;;
3991;SDS011;2010;48.194;16.394;2023-08-06T12:57:07;3.17;;;2.87;;
3991;SDS011;2010;48.194;16.394;2023-08-06T12:59:39;3.20;;;2.90;;
3991;SDS011;2010;48.194;16.394;2023-08-06T13:02:08;2.80;;;2.60;;
3991;SDS011;2010;48.194;16.394;2023-08-06T13:04:42;6.67;;;3.13;;
3991;SDS011;2010;48.194;16.394;2023-08-06T13:07:14;3.20;;;2.90;;
3991;SDS011;2010;48.194;16.394;2023-08-06T13:09:53;3.70;;;3.47;;
3991;SDS011;2010;48.194;16.394;2023-08-06T13:12:31;3.33;;;3.10;;
3991;SDS011;2010;48.194;16.394;2023-08-06T13:15:21;3.27;;;2.97;;
3991;SDS011;2010;48.194;16.394;2023-08-06T13:17:54;3.10;;;2.80;;
3991;SDS011;2010;48.194;16.394;2023-08-06T13:20:37;4.30;;;3.20;;
3991;SDS011;2010;48.194;16.394;2023-08-06T13:23:13;3.47;;;3.10;;
3991;SDS011;2010;48.194;16.394;2023-08-06T13:26:03;3.20;;;3.00;;
3991;SDS011;2010;48.194;16.394;2023-08-06T13:28:41;3.10;;;2.90;;
3991;SDS011;2010;48.194;16.394;2023-08-06T13:31:15;3.43;;;3.23;;
3991;SDS011;2010;48.194;16.394;2023-08-06T13:33:48;3.10;;;2.90;;
3991;SDS011;2010;48.194;16.394;2023-08-06T13:36:25;3.33;;;3.03;;
3991;SDS011;2010;48.194;16.394;2023-08-06T13:39:11;3.30;;;3.10;;
3991;SDS011;2010;48.194;16.394;2023-08-06T13:41:49;2.70;;;2.50;;
3991;SDS011;2010;48.194;16.394;2023-08-06T13:44:20;3.60;;;3.40;;
3991;SDS011;2010;48.194;16.394;2023-08-06T13:46:54;7.60;;;2.50;;
3991;SDS011;2010;48.194;16.394;2023-08-06T13:49:25;4.17;;;3.57;;
3991;SDS011;2010;48.194;16.394;2023-08-06T13:51:58;3.50;;;3.20;;
3991;SDS011;2010;48.194;16.394;2023-08-06T13:54:49;4.10;;;2.90;;
3991;SDS011;2010;48.194;16.394;2023-08-06T13:57:46;2.83;;;2.63;;
3991;SDS011;2010;48.194;16.394;2023-08-06T14:00:19;2.70;;;2.50;;
3991;SDS011;2010;48.194;16.394;2023-08-06T14:03:01;2.40;;;2.30;;
3991;SDS011;2010;48.194;16.394;2023-08-06T14:05:46;3.07;;;2.87;;
3991;SDS011;2010;48.194;16.394;2023-08-06T14:08:26;3.50;;;3.13;;
3991;SDS011;2010;48.194;16.394;2023-08-06T14:11:06;2.93;;;2.60;;
3991;SDS011;2010;48.194;16.394;2023-08-06T14:13:57;3.40;;;2.57;;
3991;SDS011;2010;48.194;16.394;2023-08-06T14:16:46;3.37;;;2.83;;
3991;SDS011;2010;48.194;16.394;2023-08-06T14:19:22;3.07;;;2.30;;
3991;SDS011;2010;48.194;16.394;2023-08-06T14:22:00;2.03;;;1.93;;
3991;SDS011;2010;48.194;16.394;2023-08-06T14:24:33;1.77;;;1.67;;
3991;SDS011;2010;48.194;16.394;2023-08-06T14:27:06;1.63;;;1.53;;
3991;SDS011;2010;48.194;16.394;2023-08-06T14:29:41;1.13;;;1.10;;
3991;SDS011;2010;48.194;16.394;2023-08-06T14:32:22;1.97;;;1.07;;
3991;SDS011;2010;48.194;16.394;2023-08-06T14:35:13;1.40;;;1.20;;
3991;SDS011;2010;48.194;16.394;2023-08-06T14:37:46;1.07;;;0.93;;
3991;SDS011;2010;48.194;16.394;2023-08-06T14:40:24;0.97;;;0.97;;
3991;SDS011;2010;48.194;16.394;2023-08-06T14:43:12;0.80;;;0.80;;
3991;SDS011;2010;48.194;16.394;2023-08-06T14:45:46;1.10;;;1.00;;
3991;SDS011;2010;48.194;16.394;2023-08-06T14:48:24;1.00;;;0.90;;
3991;SDS011;2010;48.194;16.394;2023-08-06T14:50:59;1.83;;;1.33;;
3991;SDS011;2010;48.194;16.394;2023-08-06T14:53:34;2.00;;;1.90;;
3991;SDS011;2010;48.194;16.394;2023-08-06T14:56:06;2.13;;;1.57;;
3991;SDS011;2010;48.194;16.394;2023-08-06T14:58:41;1.70;;;1.60;;
3991;SDS011;2010;48.194;16.394;2023-08-06T15:01:16;2.63;;;1.23;;
3991;SDS011;2010;48.194;16.394;2023-08-06T15:03:53;1.20;;;1.10;;
3991;SDS011;2010;48.194;16.394;2023-08-06T15:06:39;1.10;;;0.80;;
3991;SDS011;2010;48.194;16.394;2023-08-06T15:09:23;3.43;;;1.10;;
3991;SDS011;2010;48.194;16.394;2023-08-06T15:12:41;1.63;;;0.93;;
3991;SDS011;2010;48.194;16.394;2023-08-06T15:15:18;0.60;;;0.50;;
3991;SDS011;2010;48.194;16.394;2023-08-06T15:18:13;0.83;;;0.83;;
3991;SDS011;2010;48.194;16.394;2023-08-06T15:20:49;1.63;;;0.70;;
3991;SDS011;2010;48.194;16.394;2023-08-06T15:23:37;0.70;;;0.70;;
3991;SDS011;2010;48.194;16.394;2023-08-06T15:26:47;0.70;;;0.70;;
3991;SDS011;2010;48.194;16.394;2023-08-06T15:29:24;1.93;;;0.90;;
3991;SDS011;2010;48.194;16.394;2023-08-06T15:32:10;1.73;;;1.00;;
3991;SDS011;2010;48.194;16.394;2023-08-06T15:35:06;0.80;;;0.70;;
3991;SDS011;2010;48.194;16.394;2023-08-06T15:37:39;1.17;;;0.87;;
3991;SDS011;2010;48.194;16.394;2023-08-06T15:40:24;0.50;;;0.50;;
3991;SDS011;2010;48.194;16.394;2023-08-06T15:43:08;0.60;;;0.60;;
3991;SDS011;2010;48.194;16.394;2023-08-06T15:45:54;0.60;;;0.60;;